createdAt,value
2024-01-06T00:00:04.199Z,348
2024-01-06T00:01:02.794Z,347
2024-01-06T00:02:02.712Z,342
2024-01-06T00:03:02.947Z,350
2024-01-06T00:04:03.042Z,344
2024-01-06T00:05:03.136Z,341
2024-01-06T00:06:03.280Z,345
2024-01-06T00:07:02.013Z,342
2024-01-06T00:08:03.362Z,351
2024-01-06T00:09:02.126Z,353
2024-01-06T00:10:03.225Z,343
2024-01-06T00:11:03.154Z,336
2024-01-06T00:12:02.202Z,337
2024-01-06T00:13:02.047Z,329
2024-01-06T00:15:03.483Z,331
2024-01-06T00:16:02.348Z,335
2024-01-06T00:17:02.536Z,346
2024-01-06T00:18:02.646Z,353
2024-01-06T00:19:02.581Z,348
2024-01-06T00:20:02.554Z,342
2024-01-06T00:21:02.430Z,337
2024-01-06T00:22:02.143Z,324
2024-01-06T00:23:03.276Z,327
2024-01-06T00:24:02.225Z,326
2024-01-06T00:25:03.437Z,340
2024-01-06T00:26:02.410Z,352
2024-01-06T00:27:02.363Z,346
2024-01-06T00:29:02.027Z,340
2024-01-06T00:30:03.366Z,339
2024-01-06T00:31:02.592Z,342
2024-01-06T00:32:02.815Z,343
2024-01-06T00:33:02.873Z,345
2024-01-06T00:34:03.131Z,346
2024-01-06T00:35:03.244Z,344
2024-01-06T00:36:02.097Z,343
2024-01-06T00:37:03.108Z,339
2024-01-06T00:38:02.882Z,346
2024-01-06T00:40:03.091Z,347
2024-01-06T00:41:03.139Z,339
2024-01-06T00:42:03.027Z,343
2024-01-06T00:43:02.954Z,351
2024-01-06T00:44:02.832Z,339
2024-01-06T00:45:03.143Z,333
2024-01-06T00:46:02.205Z,344
2024-01-06T00:48:02.161Z,348
2024-01-06T00:50:03.114Z,349
2024-01-06T00:51:02.979Z,355
2024-01-06T00:52:03.096Z,346
2024-01-06T00:53:02.984Z,347
2024-01-06T00:55:02.828Z,352
2024-01-06T00:56:02.818Z,338
2024-01-06T00:57:02.614Z,343
2024-01-06T00:58:02.591Z,346
2024-01-06T00:59:02.506Z,339
2024-01-06T01:00:03.639Z,337
2024-01-06T01:01:02.916Z,339
2024-01-06T01:02:02.951Z,350
2024-01-06T01:03:03.092Z,352
2024-01-06T01:04:02.052Z,349
2024-01-06T01:05:03.130Z,342
2024-01-06T01:06:01.995Z,345
2024-01-06T01:07:02.902Z,341
2024-01-06T01:08:02.928Z,340
2024-01-06T01:09:02.907Z,344
2024-01-06T01:10:03.053Z,347
2024-01-06T01:11:03.158Z,342
2024-01-06T01:12:03.067Z,349
2024-01-06T01:13:02.936Z,339
2024-01-06T01:15:03.131Z,345
2024-01-06T01:16:02.205Z,344
2024-01-06T01:17:02.394Z,342
2024-01-06T01:18:02.793Z,340
2024-01-06T01:19:02.540Z,341
2024-01-06T01:20:02.551Z,338
2024-01-06T01:21:02.974Z,335
2024-01-06T01:22:03.058Z,339
2024-01-06T01:23:03.021Z,340
2024-01-06T01:24:02.892Z,339
2024-01-06T01:25:03.024Z,345
2024-01-06T01:26:03.065Z,353
2024-01-06T01:27:03.056Z,344
2024-01-06T01:28:03.167Z,349
2024-01-06T01:29:03.234Z,346
2024-01-06T01:30:02.651Z,339
2024-01-06T01:31:03.175Z,343
2024-01-06T01:32:03.342Z,345
2024-01-06T01:33:02.664Z,331
2024-01-06T01:34:02.730Z,329
2024-01-06T01:35:02.819Z,333
2024-01-06T01:36:03.131Z,346
2024-01-06T01:37:02.371Z,334
2024-01-06T01:38:02.017Z,336
2024-01-06T01:39:02.061Z,331
2024-01-06T01:40:03.250Z,335
2024-01-06T01:41:02.194Z,348
2024-01-06T01:42:03.446Z,339
2024-01-06T01:43:02.218Z,338
2024-01-06T01:44:02.205Z,336
2024-01-06T01:45:02.335Z,339
2024-01-06T01:46:02.411Z,344
2024-01-06T01:47:02.273Z,341
2024-01-06T01:48:02.455Z,348
2024-01-06T01:49:02.319Z,344
2024-01-06T01:50:03.072Z,338
2024-01-06T01:51:03.067Z,337
2024-01-06T01:52:03.136Z,344
2024-01-06T01:54:02.846Z,343
2024-01-06T01:55:02.895Z,340
2024-01-06T01:56:02.854Z,335
2024-01-06T01:57:02.917Z,341
2024-01-06T01:58:02.794Z,352
2024-01-06T01:59:02.817Z,354
2024-01-06T02:00:03.794Z,347
2024-01-06T02:03:02.795Z,345
2024-01-06T02:04:02.882Z,331
2024-01-06T02:05:02.914Z,337
2024-01-06T02:06:02.819Z,351
2024-01-06T02:07:02.849Z,343
2024-01-06T02:08:02.666Z,349
2024-01-06T02:09:02.747Z,345
2024-01-06T02:10:02.843Z,339
2024-01-06T02:11:02.886Z,352
2024-01-06T02:12:02.854Z,356
2024-01-06T02:13:02.901Z,354
2024-01-06T02:14:02.780Z,348
2024-01-06T02:15:03.145Z,345
2024-01-06T02:17:03.295Z,354
2024-01-06T02:18:02.392Z,356
2024-01-06T02:19:02.267Z,350
2024-01-06T02:20:03.231Z,345
2024-01-06T02:21:02.987Z,348
2024-01-06T02:22:03.110Z,349
2024-01-06T02:23:02.868Z,344
2024-01-06T02:24:02.838Z,342
2024-01-06T02:25:02.958Z,344
2024-01-06T02:26:02.947Z,347
2024-01-06T02:27:03.056Z,352
2024-01-06T02:28:03.032Z,350
2024-01-06T02:30:03.289Z,346
2024-01-06T02:31:02.466Z,343
2024-01-06T02:33:02.415Z,351
2024-01-06T02:34:02.413Z,350
2024-01-06T02:35:02.532Z,354
2024-01-06T02:36:02.592Z,353
2024-01-06T02:37:02.662Z,342
2024-01-06T02:38:02.605Z,345
2024-01-06T02:39:02.640Z,355
2024-01-06T02:40:03.021Z,353
2024-01-06T02:41:03.146Z,355
2024-01-06T02:42:02.033Z,349
2024-01-06T02:43:03.087Z,338
2024-01-06T02:44:02.224Z,341
2024-01-06T02:45:03.377Z,349
2024-01-06T02:47:02.356Z,343
2024-01-06T02:48:02.388Z,340
2024-01-06T02:50:02.260Z,348
2024-01-06T02:51:03.032Z,358
2024-01-06T02:52:03.098Z,352
2024-01-06T02:53:01.970Z,349
2024-01-06T02:54:03.016Z,346
2024-01-06T02:55:02.878Z,340
2024-01-06T02:56:02.951Z,343
2024-01-06T02:57:02.865Z,345
2024-01-06T02:58:02.725Z,337
2024-01-06T02:59:02.619Z,339
2024-01-06T03:00:03.811Z,341
2024-01-06T03:01:02.517Z,338
2024-01-06T03:02:02.274Z,343
2024-01-06T03:03:02.620Z,345
2024-01-06T03:04:02.575Z,354
2024-01-06T03:05:02.390Z,365
2024-01-06T03:06:02.320Z,358
2024-01-06T03:07:02.330Z,349
2024-01-06T03:08:02.271Z,342
2024-01-06T03:09:02.212Z,346
2024-01-06T03:10:02.276Z,348
2024-01-06T03:11:02.328Z,343
2024-01-06T03:13:02.984Z,348
2024-01-06T03:14:02.811Z,353
2024-01-06T03:15:02.991Z,352
2024-01-06T03:16:02.508Z,353
2024-01-06T03:17:02.718Z,354
2024-01-06T03:18:03.128Z,349
2024-01-06T03:19:03.083Z,338
2024-01-06T03:20:02.977Z,343
2024-01-06T03:21:02.937Z,353
2024-01-06T03:22:03.081Z,350
2024-01-06T03:23:03.029Z,344
2024-01-06T03:24:02.021Z,342
2024-01-06T03:25:03.075Z,353
2024-01-06T03:27:02.940Z,358
2024-01-06T03:28:02.933Z,357
2024-01-06T03:29:03.046Z,360
2024-01-06T03:30:03.574Z,358
2024-01-06T03:31:02.273Z,353
2024-01-06T03:32:02.145Z,342
2024-01-06T03:33:02.182Z,344
2024-01-06T03:34:03.286Z,347
2024-01-06T03:35:02.324Z,337
2024-01-06T03:36:02.126Z,348
2024-01-06T03:37:03.085Z,352
2024-01-06T03:38:02.107Z,350
2024-01-06T03:41:02.201Z,358
2024-01-06T03:42:03.028Z,352
2024-01-06T03:43:03.122Z,343
2024-01-06T03:44:03.062Z,344
2024-01-06T03:45:03.238Z,353
2024-01-06T03:46:02.320Z,350
2024-01-06T03:47:02.450Z,346
2024-01-06T03:48:03.050Z,335
2024-01-06T03:49:16.189Z,343
2024-01-06T03:50:02.373Z,355
2024-01-06T03:51:02.382Z,346
2024-01-06T03:52:02.106Z,353
2024-01-06T03:53:03.219Z,345
2024-01-06T03:54:02.035Z,348
2024-01-06T03:55:03.281Z,345
2024-01-06T03:56:02.275Z,351
2024-01-06T03:58:02.225Z,344
2024-01-06T03:59:01.937Z,353
2024-01-06T04:00:04.002Z,343
2024-01-06T04:01:02.932Z,336
2024-01-06T04:02:02.633Z,342
2024-01-06T04:03:02.583Z,346
2024-01-06T04:04:02.489Z,344
2024-01-06T04:05:02.335Z,349
2024-01-06T04:06:02.222Z,353
2024-01-06T04:07:02.985Z,347
2024-01-06T04:08:02.807Z,346
2024-01-06T04:09:02.879Z,350
2024-01-06T04:10:02.946Z,358
2024-01-06T04:11:03.029Z,361
2024-01-06T04:12:02.959Z,353
2024-01-06T04:13:03.021Z,343
2024-01-06T04:14:02.936Z,334
2024-01-06T04:15:03.297Z,335
2024-01-06T04:16:02.209Z,343
2024-01-06T04:17:02.217Z,356
2024-01-06T04:18:02.544Z,353
2024-01-06T04:19:02.222Z,355
2024-01-06T04:20:03.138Z,343
2024-01-06T04:21:03.232Z,352
2024-01-06T04:22:02.221Z,348
2024-01-06T04:23:02.079Z,347
2024-01-06T04:25:02.971Z,349
2024-01-06T04:28:02.928Z,352
2024-01-06T04:29:02.968Z,357
2024-01-06T04:30:03.283Z,353
2024-01-06T04:31:02.809Z,348
2024-01-06T04:32:02.708Z,346
2024-01-06T04:33:02.754Z,355
2024-01-06T04:34:02.669Z,346
2024-01-06T04:35:02.565Z,348
2024-01-06T04:36:02.350Z,340
2024-01-06T04:37:02.357Z,337
2024-01-06T04:38:02.125Z,352
2024-01-06T04:39:02.214Z,359
2024-01-06T04:40:03.171Z,360
2024-01-06T04:41:02.244Z,361
2024-01-06T04:42:02.182Z,354
2024-01-06T04:43:02.191Z,358
2024-01-06T04:44:02.905Z,359
2024-01-06T04:45:03.152Z,361
2024-01-06T04:46:02.172Z,360
2024-01-06T04:47:03.136Z,356
2024-01-06T04:48:02.409Z,341
2024-01-06T04:49:03.069Z,350
2024-01-06T04:50:03.067Z,349
2024-01-06T04:52:03.012Z,350
2024-01-06T04:54:03.263Z,340
2024-01-06T04:55:02.246Z,357
2024-01-06T04:56:02.160Z,363
2024-01-06T04:57:03.104Z,352
2024-01-06T04:58:03.005Z,346
2024-01-06T04:59:02.922Z,342
2024-01-06T05:00:03.813Z,341
2024-01-06T05:01:02.553Z,350
2024-01-06T05:02:02.547Z,358
2024-01-06T05:03:02.760Z,357
2024-01-06T05:04:02.677Z,366
2024-01-06T05:05:02.616Z,365
2024-01-06T05:06:02.287Z,364
2024-01-06T05:07:02.165Z,353
2024-01-06T05:08:03.144Z,358
2024-01-06T05:09:03.003Z,348
2024-01-06T05:10:02.990Z,360
2024-01-06T05:11:03.126Z,361
2024-01-06T05:12:02.951Z,349
2024-01-06T05:13:02.886Z,355
2024-01-06T05:14:03.246Z,360
2024-01-06T05:15:02.714Z,371
2024-01-06T05:16:03.256Z,364
2024-01-06T05:17:03.391Z,363
2024-01-06T05:18:02.920Z,367
2024-01-06T05:19:02.695Z,363
2024-01-06T05:20:02.751Z,365
2024-01-06T05:21:02.753Z,360
2024-01-06T05:22:02.649Z,362
2024-01-06T05:23:02.611Z,363
2024-01-06T05:24:02.313Z,367
2024-01-06T05:26:02.473Z,368
2024-01-06T05:27:02.336Z,357
2024-01-06T05:29:02.975Z,346
2024-01-06T05:30:03.347Z,356
2024-01-06T05:31:02.783Z,360
2024-01-06T05:32:02.592Z,357
2024-01-06T05:34:02.564Z,352
2024-01-06T05:35:02.832Z,348
2024-01-06T05:36:02.688Z,350
2024-01-06T05:37:02.707Z,352
2024-01-06T05:38:02.692Z,349
2024-01-06T05:39:02.736Z,345
2024-01-06T05:40:02.872Z,346
2024-01-06T05:41:02.930Z,342
2024-01-06T05:42:03.087Z,349
2024-01-06T05:43:02.993Z,347
2024-01-06T05:44:02.950Z,346
2024-01-06T05:45:03.451Z,342
2024-01-06T05:46:02.800Z,343
2024-01-06T05:48:02.885Z,346
2024-01-06T05:49:02.586Z,348
2024-01-06T05:50:02.476Z,343
2024-01-06T05:51:02.489Z,352
2024-01-06T05:52:02.437Z,346
2024-01-06T05:53:02.264Z,335
2024-01-06T05:54:02.407Z,342
2024-01-06T05:55:02.369Z,350
2024-01-06T05:56:02.345Z,349
2024-01-06T05:57:02.415Z,348
2024-01-06T05:58:02.288Z,347
2024-01-06T05:59:02.311Z,346
2024-01-06T06:00:03.195Z,354
2024-01-06T06:01:02.119Z,361
2024-01-06T06:02:03.211Z,350
2024-01-06T06:03:02.741Z,346
2024-01-06T06:04:02.801Z,354
2024-01-06T06:05:02.939Z,340
2024-01-06T06:06:03.172Z,332
2024-01-06T06:07:03.229Z,338
2024-01-06T06:08:02.302Z,344
2024-01-06T06:10:02.331Z,349
2024-01-06T06:11:02.720Z,339
2024-01-06T06:12:02.364Z,335
2024-01-06T06:13:03.193Z,338
2024-01-06T06:14:02.276Z,339
2024-01-06T06:15:03.437Z,351
2024-01-06T06:16:02.862Z,344
2024-01-06T06:17:02.929Z,347
2024-01-06T06:18:02.598Z,349
2024-01-06T06:19:02.461Z,352
2024-01-06T06:20:02.348Z,353
2024-01-06T06:21:02.695Z,347
2024-01-06T06:22:02.724Z,351
2024-01-06T06:23:02.493Z,341
2024-01-06T06:25:02.407Z,355
2024-01-06T06:26:02.336Z,358
2024-01-06T06:27:02.408Z,349
2024-01-06T06:28:02.366Z,337
2024-01-06T06:29:02.317Z,340
2024-01-06T06:30:02.841Z,349
2024-01-06T06:31:02.599Z,352
2024-01-06T06:32:02.636Z,344
2024-01-06T06:33:02.527Z,355
2024-01-06T06:34:05.273Z,351
2024-01-06T06:36:02.858Z,354
2024-01-06T06:37:03.165Z,361
2024-01-06T06:38:02.979Z,359
2024-01-06T06:39:02.964Z,346
2024-01-06T06:40:03.088Z,350
2024-01-06T06:41:03.163Z,340
2024-01-06T06:42:03.027Z,343
2024-01-06T06:43:03.150Z,350
2024-01-06T06:44:03.068Z,351
2024-01-06T06:45:02.643Z,347
2024-01-06T06:46:02.607Z,341
2024-01-06T06:47:02.426Z,343
2024-01-06T06:48:02.612Z,352
2024-01-06T06:49:02.733Z,356
2024-01-06T06:50:02.572Z,352
2024-01-06T06:51:02.498Z,359
2024-01-06T06:52:02.509Z,352
2024-01-06T06:53:02.494Z,341
2024-01-06T06:55:02.820Z,342
2024-01-06T06:56:02.704Z,355
2024-01-06T06:57:02.562Z,353
2024-01-06T06:58:02.645Z,341
2024-01-06T06:59:02.845Z,335
2024-01-06T07:00:04.335Z,337
2024-01-06T07:01:02.729Z,346
2024-01-06T07:02:02.842Z,356
2024-01-06T07:03:03.252Z,349
2024-01-06T07:04:02.421Z,344
2024-01-06T07:05:03.017Z,348
2024-01-06T07:06:02.952Z,352
2024-01-06T07:07:02.891Z,355
2024-01-06T07:08:02.917Z,344
2024-01-06T07:09:02.869Z,343
2024-01-06T07:10:03.022Z,346
2024-01-06T07:12:03.005Z,345
2024-01-06T07:13:02.812Z,340
2024-01-06T07:14:02.835Z,335
2024-01-06T07:15:04.993Z,332
2024-01-06T07:16:11.885Z,336
2024-01-06T07:17:03.131Z,340
2024-01-06T07:18:02.586Z,342
2024-01-06T07:19:02.709Z,340
2024-01-06T07:20:02.625Z,346
2024-01-06T07:21:02.716Z,342
2024-01-06T07:22:05.296Z,343
2024-01-06T07:23:03.028Z,349
2024-01-06T07:24:03.029Z,351
2024-01-06T07:25:03.235Z,342
2024-01-06T07:26:02.376Z,356
2024-01-06T07:27:02.339Z,354
2024-01-06T07:28:02.305Z,341
2024-01-06T07:29:02.059Z,339
2024-01-06T07:30:03.543Z,335
2024-01-06T07:31:02.482Z,338
2024-01-06T07:32:03.165Z,334
2024-01-06T07:33:02.851Z,344
2024-01-06T07:34:03.025Z,351
2024-01-06T07:35:07.245Z,355
2024-01-06T07:36:03.053Z,363
2024-01-06T07:37:03.121Z,356
2024-01-06T07:38:02.944Z,349
2024-01-06T07:39:03.151Z,341
2024-01-06T07:40:02.422Z,343
2024-01-06T07:41:02.250Z,338
2024-01-06T07:42:02.071Z,346
2024-01-06T07:43:03.014Z,348
2024-01-06T07:44:03.268Z,362
2024-01-06T07:45:02.601Z,352
2024-01-06T07:46:02.583Z,353
2024-01-06T07:47:03.014Z,358
2024-01-06T07:48:02.689Z,361
2024-01-06T07:49:02.747Z,357
2024-01-06T07:50:02.722Z,358
2024-01-06T07:51:02.947Z,352
2024-01-06T07:52:02.952Z,345
2024-01-06T07:54:03.310Z,353
2024-01-06T07:55:03.283Z,346
2024-01-06T07:56:02.838Z,352
2024-01-06T07:57:02.602Z,347
2024-01-06T07:58:02.652Z,341
2024-01-06T07:59:02.500Z,339
2024-01-06T08:00:06.118Z,346
2024-01-06T08:01:02.945Z,348
2024-01-06T08:04:03.001Z,345
2024-01-06T08:05:03.087Z,350
2024-01-06T08:06:02.223Z,353
2024-01-06T08:07:02.370Z,348
2024-01-06T08:08:02.871Z,342
2024-01-06T08:09:03.054Z,340
2024-01-06T08:10:03.198Z,333
2024-01-06T08:11:02.376Z,335
2024-01-06T08:12:02.435Z,347
2024-01-06T08:13:02.569Z,344
2024-01-06T08:14:02.456Z,331
2024-01-06T08:15:02.864Z,336
2024-01-06T08:16:03.005Z,333
2024-01-06T08:17:03.124Z,336
2024-01-06T08:18:03.118Z,343
2024-01-06T08:19:03.111Z,353
2024-01-06T08:20:03.069Z,358
2024-01-06T08:21:03.306Z,349
2024-01-06T08:22:02.401Z,346
2024-01-06T08:23:02.512Z,339
2024-01-06T08:24:02.275Z,346
2024-01-06T08:25:02.695Z,339
2024-01-06T08:26:02.546Z,335
2024-01-06T08:27:02.637Z,344
2024-01-06T08:28:02.664Z,350
2024-01-06T08:29:02.730Z,356
2024-01-06T08:30:03.310Z,351
2024-01-06T08:31:02.501Z,343
2024-01-06T08:33:02.278Z,349
2024-01-06T08:34:02.590Z,345
2024-01-06T08:35:02.735Z,342
2024-01-06T08:36:02.619Z,341
2024-01-06T08:37:03.010Z,350
2024-01-06T08:38:03.148Z,355
2024-01-06T08:39:02.304Z,352
2024-01-06T08:40:02.674Z,346
2024-01-06T08:41:02.436Z,348
2024-01-06T08:42:02.782Z,355
2024-01-06T08:43:02.454Z,357
2024-01-06T08:44:02.372Z,344
2024-01-06T08:45:03.087Z,349
2024-01-06T08:46:02.890Z,351
2024-01-06T08:47:02.872Z,356
2024-01-06T08:48:02.893Z,354
2024-01-06T08:49:02.901Z,350
2024-01-06T08:50:03.189Z,348
2024-01-06T08:51:03.237Z,342
2024-01-06T08:52:02.390Z,344
2024-01-06T08:53:02.327Z,346
2024-01-06T08:54:02.297Z,349
2024-01-06T08:55:02.448Z,355
2024-01-06T08:56:02.586Z,357
2024-01-06T08:57:02.630Z,352
2024-01-06T08:58:02.384Z,354
2024-01-06T08:59:02.224Z,355
2024-01-06T09:00:03.187Z,342
2024-01-06T09:01:03.096Z,346
2024-01-06T09:02:03.219Z,358
2024-01-06T09:03:02.312Z,363
2024-01-06T09:04:02.591Z,355
2024-01-06T09:05:02.670Z,356
2024-01-06T09:06:02.655Z,360
2024-01-06T09:07:02.675Z,350
2024-01-06T09:08:02.693Z,357
2024-01-06T09:09:03.136Z,352
2024-01-06T09:10:03.161Z,356
2024-01-06T09:11:02.261Z,348
2024-01-06T09:12:02.150Z,349
2024-01-06T09:13:03.134Z,351
2024-01-06T09:14:03.042Z,354
2024-01-06T09:16:03.448Z,350
2024-01-06T09:17:02.947Z,349
2024-01-06T09:18:02.865Z,342
2024-01-06T09:19:02.773Z,347
2024-01-06T09:20:03.036Z,349
2024-01-06T09:21:03.097Z,342
2024-01-06T09:22:03.251Z,349
2024-01-06T09:23:02.194Z,355
2024-01-06T09:24:02.211Z,349
2024-01-06T09:25:03.370Z,353
2024-01-06T09:26:02.612Z,343
2024-01-06T09:27:02.785Z,340
2024-01-06T09:28:03.032Z,338
2024-01-06T09:29:02.935Z,345
2024-01-06T09:30:03.224Z,352
2024-01-06T09:31:02.832Z,348
2024-01-06T09:32:02.490Z,345
2024-01-06T09:33:02.769Z,350
2024-01-06T09:34:02.957Z,349
2024-01-06T09:35:03.361Z,347
2024-01-06T09:36:02.291Z,348
2024-01-06T09:37:02.671Z,362
2024-01-06T09:38:02.670Z,349
2024-01-06T09:39:02.851Z,353
2024-01-06T09:40:03.693Z,348
2024-01-06T09:41:02.778Z,339
2024-01-06T09:42:03.268Z,347
2024-01-06T09:44:02.222Z,349
2024-01-06T09:45:02.788Z,344
2024-01-06T09:46:02.456Z,346
2024-01-06T09:47:02.381Z,350
2024-01-06T09:48:02.846Z,349
2024-01-06T09:49:02.701Z,342
2024-01-06T09:50:02.969Z,335
2024-01-06T09:51:02.948Z,336
2024-01-06T09:52:02.927Z,346
2024-01-06T09:53:02.803Z,347
2024-01-06T09:54:02.842Z,337
2024-01-06T09:55:02.981Z,340
2024-01-06T09:56:02.923Z,342
2024-01-06T09:57:02.905Z,338
2024-01-06T09:58:05.780Z,344
2024-01-06T09:59:02.527Z,359
2024-01-06T10:00:03.715Z,352
2024-01-06T10:01:02.491Z,356
2024-01-06T10:02:02.706Z,350
2024-01-06T10:04:03.018Z,357
2024-01-06T10:05:03.093Z,350
2024-01-06T10:06:02.289Z,348
2024-01-06T10:07:02.211Z,341
2024-01-06T10:08:03.184Z,331
2024-01-06T10:09:02.546Z,340
2024-01-06T10:10:02.787Z,353
2024-01-06T10:11:02.944Z,358
2024-01-06T10:12:02.716Z,338
2024-01-06T10:13:02.773Z,342
2024-01-06T10:14:02.737Z,341
2024-01-06T10:15:03.086Z,339
2024-01-06T10:16:02.341Z,340
2024-01-06T10:18:02.302Z,338
2024-01-06T10:19:02.413Z,352
2024-01-06T10:20:02.839Z,351
2024-01-06T10:21:02.785Z,349
2024-01-06T10:22:02.790Z,353
2024-01-06T10:23:02.479Z,348
2024-01-06T10:24:02.555Z,345
2024-01-06T10:25:02.590Z,340
2024-01-06T10:26:05.365Z,342
2024-01-06T10:27:02.777Z,357
2024-01-06T10:28:02.798Z,355
2024-01-06T10:30:02.853Z,352
2024-01-06T10:31:02.400Z,354
2024-01-06T10:32:02.333Z,345
2024-01-06T10:33:02.424Z,344
2024-01-06T10:34:02.625Z,350
2024-01-06T10:35:02.794Z,343
2024-01-06T10:36:02.825Z,344
2024-01-06T10:37:02.758Z,334
2024-01-06T10:39:02.542Z,344
2024-01-06T10:40:02.968Z,346
2024-01-06T10:41:02.886Z,341
2024-01-06T10:42:02.789Z,345
2024-01-06T10:43:02.764Z,348
2024-01-06T10:44:02.463Z,350
2024-01-06T10:45:02.825Z,342
2024-01-06T10:46:02.308Z,354
2024-01-06T10:47:02.773Z,357
2024-01-06T10:48:02.724Z,347
2024-01-06T10:49:02.719Z,358
2024-01-06T10:50:02.873Z,349
2024-01-06T10:51:02.818Z,347
2024-01-06T10:52:02.985Z,345
2024-01-06T10:53:02.867Z,350
2024-01-06T10:54:02.907Z,351
2024-01-06T10:55:02.909Z,350
2024-01-06T10:56:02.767Z,348
2024-01-06T10:57:02.865Z,357
2024-01-06T10:58:02.841Z,359
2024-01-06T10:59:02.985Z,355
2024-01-06T11:00:03.871Z,346
2024-01-06T11:01:02.859Z,349
2024-01-06T11:02:02.939Z,353
2024-01-06T11:04:02.593Z,355
2024-01-06T11:05:02.912Z,353
2024-01-06T11:06:02.895Z,345
2024-01-06T11:07:02.681Z,352
2024-01-06T11:08:02.514Z,359
2024-01-06T11:09:02.512Z,361
2024-01-06T11:10:02.769Z,356
2024-01-06T11:11:02.526Z,347
2024-01-06T11:12:02.489Z,348
2024-01-06T11:13:02.592Z,357
2024-01-06T11:14:02.657Z,364
2024-01-06T11:16:02.593Z,350
2024-01-06T11:17:02.873Z,342
2024-01-06T11:18:03.152Z,344
2024-01-06T11:19:21.953Z,342
2024-01-06T11:20:03.293Z,343
2024-01-06T11:21:02.216Z,344
2024-01-06T11:22:02.154Z,346
2024-01-06T11:23:03.158Z,349
2024-01-06T11:24:02.994Z,353
2024-01-06T11:25:03.277Z,348
2024-01-06T11:26:02.228Z,341
2024-01-06T11:27:02.210Z,343
2024-01-06T11:28:02.315Z,346
2024-01-06T11:29:02.822Z,342
2024-01-06T11:30:03.116Z,355
2024-01-06T11:31:02.810Z,359
2024-01-06T11:32:02.583Z,358
2024-01-06T11:33:02.544Z,355
2024-01-06T11:34:02.512Z,358
2024-01-06T11:35:02.588Z,354
2024-01-06T11:36:02.832Z,349
2024-01-06T11:38:02.435Z,350
2024-01-06T11:39:02.425Z,343
2024-01-06T11:40:02.549Z,342
2024-01-06T11:41:02.618Z,353
2024-01-06T11:42:02.620Z,357
2024-01-06T11:43:02.619Z,361
2024-01-06T11:44:02.917Z,360
2024-01-06T11:46:02.450Z,348
2024-01-06T11:47:02.536Z,338
2024-01-06T11:48:02.661Z,346
2024-01-06T11:49:02.376Z,340
2024-01-06T11:50:02.593Z,346
2024-01-06T11:52:03.114Z,357
2024-01-06T11:53:02.445Z,350
2024-01-06T11:54:02.518Z,354
2024-01-06T11:55:03.080Z,350
2024-01-06T11:56:02.463Z,354
2024-01-06T11:57:02.498Z,347
2024-01-06T11:58:02.438Z,348
2024-01-06T11:59:02.441Z,355
2024-01-06T12:00:03.443Z,365
2024-01-06T12:01:02.629Z,356
2024-01-06T12:03:03.150Z,359
2024-01-06T12:04:02.758Z,353
2024-01-06T12:05:02.784Z,349
2024-01-06T12:06:02.928Z,343
2024-01-06T12:07:02.908Z,345
2024-01-06T12:08:03.029Z,356
2024-01-06T12:09:02.881Z,355
2024-01-06T12:10:03.474Z,353
2024-01-06T12:11:02.154Z,347
2024-01-06T12:12:03.037Z,357
2024-01-06T12:13:03.385Z,365
2024-01-06T12:14:02.247Z,348
2024-01-06T12:15:02.685Z,343
2024-01-06T12:18:02.901Z,349
2024-01-06T12:19:02.953Z,354
2024-01-06T12:20:03.193Z,355
2024-01-06T12:22:03.084Z,343
2024-01-06T12:23:03.068Z,348
2024-01-06T12:24:03.087Z,352
2024-01-06T12:25:03.222Z,358
2024-01-06T12:26:03.288Z,351
2024-01-06T12:27:02.731Z,346
2024-01-06T12:28:03.071Z,345
2024-01-06T12:30:03.515Z,344
2024-01-06T12:31:02.696Z,340
2024-01-06T12:32:02.974Z,351
2024-01-06T12:33:02.758Z,344
2024-01-06T12:35:02.698Z,350
2024-01-06T12:36:10.306Z,352
2024-01-06T12:37:03.131Z,349
2024-01-06T12:38:02.261Z,356
2024-01-06T12:39:03.164Z,352
2024-01-06T12:40:02.480Z,364
2024-01-06T12:41:02.634Z,361
2024-01-06T12:42:02.450Z,359
2024-01-06T12:43:02.336Z,358
2024-01-06T12:44:02.359Z,349
2024-01-06T12:45:02.659Z,342
2024-01-06T12:46:03.050Z,352
2024-01-06T12:47:03.010Z,342
2024-01-06T12:48:02.848Z,343
2024-01-06T12:49:02.745Z,350
2024-01-06T12:50:02.813Z,346
2024-01-06T12:51:02.757Z,343
2024-01-06T12:52:02.596Z,345
2024-01-06T12:53:02.482Z,347
2024-01-06T12:54:02.474Z,357
2024-01-06T12:55:02.559Z,356
2024-01-06T12:56:02.630Z,353
2024-01-06T12:57:02.557Z,343
2024-01-06T12:58:02.694Z,341
2024-01-06T12:59:02.484Z,357
2024-01-06T13:00:03.778Z,356
2024-01-06T13:01:03.271Z,347
2024-01-06T13:02:03.199Z,346
2024-01-06T13:03:03.160Z,345
2024-01-06T13:04:03.291Z,342
2024-01-06T13:05:03.193Z,345
2024-01-06T13:06:02.378Z,350
2024-01-06T13:09:02.323Z,349
2024-01-06T13:10:02.664Z,350
2024-01-06T13:11:02.570Z,353
2024-01-06T13:12:02.569Z,352
2024-01-06T13:13:02.330Z,359
2024-01-06T13:14:02.164Z,344
2024-01-06T13:15:02.415Z,338
2024-01-06T13:17:02.396Z,355
2024-01-06T13:19:02.776Z,353
2024-01-06T13:20:02.855Z,352
2024-01-06T13:21:02.800Z,364
2024-01-06T13:22:02.905Z,358
2024-01-06T13:24:02.828Z,353
2024-01-06T13:25:03.127Z,358
2024-01-06T13:26:03.043Z,348
2024-01-06T13:27:03.043Z,355
2024-01-06T13:28:02.861Z,350
2024-01-06T13:29:02.704Z,346
2024-01-06T13:30:02.862Z,343
2024-01-06T13:31:02.593Z,346
2024-01-06T13:32:02.700Z,344
2024-01-06T13:33:03.003Z,343
2024-01-06T13:34:02.892Z,352
2024-01-06T13:35:02.979Z,348
2024-01-06T13:37:03.056Z,347
2024-01-06T13:38:02.779Z,350
2024-01-06T13:39:02.693Z,348
2024-01-06T13:40:03.191Z,344
2024-01-06T13:41:02.274Z,341
2024-01-06T13:42:02.282Z,336
2024-01-06T13:43:02.328Z,335
2024-01-06T13:44:03.090Z,345
2024-01-06T13:45:03.211Z,341
2024-01-06T13:46:02.945Z,345
2024-01-06T13:47:03.093Z,351
2024-01-06T13:48:02.349Z,353
2024-01-06T13:49:02.322Z,345
2024-01-06T13:50:02.408Z,350
2024-01-06T13:51:02.408Z,344
2024-01-06T13:52:02.348Z,351
2024-01-06T13:53:02.252Z,353
2024-01-06T13:54:02.531Z,344
2024-01-06T13:55:02.785Z,350
2024-01-06T13:56:02.537Z,348
2024-01-06T13:57:02.464Z,353
2024-01-06T13:58:02.453Z,352
2024-01-06T13:59:02.476Z,349
2024-01-06T14:00:03.404Z,353
2024-01-06T14:02:02.488Z,355
2024-01-06T14:03:02.974Z,360
2024-01-06T14:04:03.029Z,357
2024-01-06T14:05:02.889Z,343
2024-01-06T14:06:02.819Z,340
2024-01-06T14:07:05.303Z,345
2024-01-06T14:08:02.449Z,349
2024-01-06T14:09:02.663Z,340
2024-01-06T14:10:02.826Z,336
2024-01-06T14:11:02.812Z,347
2024-01-06T14:12:02.861Z,350
2024-01-06T14:13:02.623Z,353
2024-01-06T14:15:03.119Z,356
2024-01-06T14:16:03.192Z,349
2024-01-06T14:17:03.132Z,357
2024-01-06T14:18:02.905Z,348
2024-01-06T14:19:03.310Z,342
2024-01-06T14:20:02.358Z,343
2024-01-06T14:22:02.676Z,347
2024-01-06T14:23:02.538Z,352
2024-01-06T14:24:03.014Z,358
2024-01-06T14:25:06.124Z,350
2024-01-06T14:26:02.984Z,347
2024-01-06T14:27:02.927Z,344
2024-01-06T14:28:03.047Z,349
2024-01-06T14:29:03.125Z,351
2024-01-06T14:30:03.298Z,356
2024-01-06T14:31:03.186Z,364
2024-01-06T14:32:03.218Z,360
2024-01-06T14:33:02.566Z,354
2024-01-06T14:34:02.818Z,341
2024-01-06T14:35:02.665Z,357
2024-01-06T14:37:02.501Z,354
2024-01-06T14:38:02.540Z,351
2024-01-06T14:39:02.822Z,352
2024-01-06T14:40:03.056Z,354
2024-01-06T14:41:03.008Z,352
2024-01-06T14:42:02.900Z,353
2024-01-06T14:43:03.162Z,356
2024-01-06T14:44:03.094Z,360
2024-01-06T14:45:03.374Z,361
2024-01-06T14:47:02.657Z,360
2024-01-06T14:48:03.174Z,367
2024-01-06T14:49:02.976Z,358
2024-01-06T14:50:03.081Z,355
2024-01-06T14:51:02.789Z,347
2024-01-06T14:53:02.587Z,353